• Join FlightAware (Why Join?)
  • Login
  • US Flag 
06:56PM EDT


 

Airport Tracker/Info


-or-


 

Live Flight TrackerFlight Track Log ✈ SKW4682 ✈ 15-May-2013 ✈ KMSP - CYQR

Flight Track Log - Related Links

Times and Time Zones

All times are in EDT time to prevent confusion due to time zone crossing. See the SKW4682 flight status page for this flight to view local times or setup timezone preferences in your user account.

Time Position Orientation Groundspeed Altitude Reporting Facility
EDT Latitude Longitude Course Direction KTS MPH feet Rate Location/Type
10:53PM 44.9167 -93.2333 301° West 162 186 2,300  Level Minneapolis TRACON
10:54PM 44.9419 -93.2633 320° Northwest 180 207 3,400 1,920 Climbing Minneapolis Center
10:55PM 44.9989 -93.3139 328° Northwest 239 275 5,700 2,460 Climbing Minneapolis Center
10:56PM 45.1894 -93.4927 302° West  Level FlightAware Approximate
10:56PM 45.0575 -93.3722 325° Northwest 257 296 8,500  Level Minneapolis Center
10:57PM 45.2336 -93.6172 295° West  Level FlightAware Approximate
10:57PM 45.1019 -93.4558 307° West 270 311 10,900  Level Minneapolis Center
10:58PM 45.2775 -93.7419 301° West  Level FlightAware Approximate
10:58PM 45.1600 -93.5700 306° West 302 348 13,000  Level Minneapolis Center
10:59PM 45.2122 -93.6706 306° West 317 365 15,100 1,680 Climbing Minneapolis Center
11:00PM 45.2644 -93.7706 307° West 320 368 16,600 1,440 Climbing Minneapolis Center
11:01PM 45.3164 -93.8753 305° West 327 376 18,200 1,380 Climbing Minneapolis Center
11:02PM 45.3731 -93.9747 309° West 325 374 19,500 1,140 Climbing Minneapolis Center
11:03PM 45.4319 -94.0767 309° West 332 382 20,600 1,020 Climbing Minneapolis Center
11:04PM 45.4939 -94.1808 310° West 341 392 21,600 1,080 Climbing Minneapolis Center
11:05PM 45.5681 -94.3094 310° West 351 404 22,800 1,080 Climbing Minneapolis Center
11:06PM 45.6303 -94.4178 309° West 353 406 23,900 780 Climbing Minneapolis Center
11:07PM 45.6933 -94.5258 310° West 355 409 24,500 540 Climbing Minneapolis Center
11:08PM 45.7572 -94.6367 310° West 360 414 25,000 540 Climbing Minneapolis Center
11:09PM 45.8222 -94.7506 309° West 369 425 25,700 780 Climbing Minneapolis Center
11:10PM 45.8878 -94.8653 309° West 372 428 26,600 780 Climbing Minneapolis Center
11:11PM 45.9528 -94.9789 309° West 370 426 27,400 660 Climbing Minneapolis Center
11:12PM 46.0242 -95.1064 309° West 369 425 28,000 540 Climbing Minneapolis Center
11:13PM 46.0906 -95.2231 309° West 376 433 28,600 600 Climbing Minneapolis Center
11:14PM 46.1539 -95.3372 309° West 370 426 29,300 660 Climbing Minneapolis Center
11:15PM 46.2194 -95.4514 310° West 371 427 30,000 720 Climbing Minneapolis Center
11:16PM 46.2822 -95.5675 308° West 368 423 30,800 660 Climbing Minneapolis Center
11:17PM 46.3461 -95.6808 309° West 366 421 31,400 540 Climbing Minneapolis Center
11:18PM 46.4211 -95.8186 308° West 366 421 32,000 240 Climbing Minneapolis Center
11:19PM 46.4828 -95.9314 308° West 372 428 32,000  Level Minneapolis Center
11:20PM 46.5356 -96.0289 308° West 380 437 32,000  Level Minneapolis Center
11:21PM 46.6158 -96.1756 309° West 388 447 32,000  Level Minneapolis Center
11:22PM 46.6831 -96.3011 308° West 393 452 32,000  Level Minneapolis Center
11:23PM 46.7503 -96.4264 308° West 394 453 32,000  Level Minneapolis Center
11:24PM 46.8192 -96.5528 309° West 399 459 32,000  Level Minneapolis Center
11:25PM 46.8872 -96.6800 308° West 400 460 32,000  Level Minneapolis Center
11:26PM 46.9553 -96.8072 308° West 399 459 32,000  Level Minneapolis Center
11:28PM 47.0378 -96.9617 308° West 401 461 32,000  Level Minneapolis Center
11:29PM 47.1053 -97.0900 308° West 399 459 32,000  Level Minneapolis Center
11:30PM 47.1867 -97.2439 308° West 398 458 32,000  Level Minneapolis Center
11:31PM 47.2536 -97.3714 308° West 396 456 32,000  Level Minneapolis Center
11:32PM 47.3197 -97.4989 307° West 394 453 32,000  Level Minneapolis Center
11:33PM 47.3858 -97.6281 307° West 396 456 32,000  Level Minneapolis Center
11:34PM 47.4522 -97.7556 308° West 394 453 32,000  Level Minneapolis Center
11:35PM 47.5283 -97.9056 307° West 395 455 32,000  Level Minneapolis Center
11:36PM 47.5894 -98.0269 307° West 394 453 32,000  Level Minneapolis Center
11:37PM 47.6558 -98.1561 307° West 393 452 32,000  Level Minneapolis Center
11:38PM 47.7211 -98.2861 307° West 393 452 32,000  Level Minneapolis Center
11:39PM 47.7867 -98.4172 307° West 395 455 32,000  Level Minneapolis Center
11:40PM 47.8536 -98.5492 307° West 398 458 32,000  Level Minneapolis Center
11:41PM 47.9186 -98.6817 306° West 399 459 32,000  Level Minneapolis Center
11:42PM 47.9836 -98.8139 306° West 397 457 32,000  Level Minneapolis Center
11:43PM 48.0492 -98.9428 307° West 393 452 32,000  Level Minneapolis Center
11:44PM 48.1397 -99.1297 306° West 397 457 32,000  Level Minneapolis Center
11:45PM 48.2042 -99.2622 306° West 396 456 32,000  Level Minneapolis Center
11:46PM 48.2661 -99.3997 304° West 397 457 32,000  Level Minneapolis Center
11:47PM 48.3317 -99.5333 306° West 397 457 32,000  Level Minneapolis Center
11:48PM 48.3961 -99.6661 306° West 396 456 32,000  Level Minneapolis Center
11:49PM 48.4581 -99.8014 305° West 394 453 32,000  Level Minneapolis Center
11:50PM 48.5233 -99.9333 307° West 393 452 32,000  Level Minneapolis Center
11:51PM 48.5847 -100.0681 305° West 391 450 32,000  Level Minneapolis Center
11:52PM 48.6481 -100.2006 306° West 389 448 32,000  Level Minneapolis Center
11:53PM 48.7108 -100.3331 306° West 389 448 32,000  Level Minneapolis Center
11:54PM 48.7719 -100.4683 304° West 389 448 32,000  Level Minneapolis Center
11:55PM 48.8347 -100.6031 305° West 391 450 32,000  Level Minneapolis Center
11:56PM 48.9097 -100.7647 305° West 391 450 32,000  Level Minneapolis Center
11:57PM 48.9167 -100.8167 282° West 390 449 32,000  Level Winnipeg Center
11:58PM 48.9667 -100.9333 303° West 390 449 32,000  Level Winnipeg Center
11:59PM 49.0333 -101.0667 307° West 390 449 32,000  Level Winnipeg Center
12:00AM 49.1000 -101.2333 301° West 400 460 32,000  Level Winnipeg Center
12:01AM 49.1667 -101.3333 316° Northwest 390 449 32,000  Level Winnipeg Center
12:02AM 49.2167 -101.4667 300° West 390 449 32,000  Level Winnipeg Center
12:03AM 49.2833 -101.6333 302° West 390 449 32,000  Level Winnipeg Center
12:04AM 49.3500 -101.7667 308° West 390 449 32,000  Level Winnipeg Center
12:05AM 49.4000 -101.9000 300° West 390 449 32,000  Level Winnipeg Center
12:06AM 49.4667 -102.0333 308° West 390 449 32,000  Level Winnipeg Center
12:07AM 49.5333 -102.2000 302° West 390 449 32,000  Level Winnipeg Center
12:08AM 49.5667 -102.3667 287° West 390 449 32,000  Level Winnipeg Center
12:09AM 49.6167 -102.5000 300° West 390 449 32,000 -60 Level Winnipeg Center
12:10AM 49.6667 -102.6500 297° West 390 449 31,900 -1,200 Descending Winnipeg Center
12:11AM 49.7167 -102.7833 300° West 400 460 29,600 -2,460 Descending Winnipeg Center
12:12AM 49.7667 -102.9500 295° West 410 472 27,000 -2,640 Descending Winnipeg Center
12:14AM 49.8667 -103.2500 297° West 390 449 21,700 -2,640 Descending Winnipeg Center
12:15AM 49.9333 -103.3833 308° West 380 437 19,200 -2,640 Descending Winnipeg Center
12:16AM 49.9667 -103.5500 287° West 390 449 16,500 -2,640 Descending Winnipeg Center
12:17AM 50.0167 -103.6833 300° West 390 449 14,000 -2,400 Descending Winnipeg Center
12:18AM 50.0833 -103.8333 305° West 370 426 11,700 -1,800 Descending Winnipeg Center
12:19AM 50.1167 -103.9667 291° West 310 357 10,400 -1,560 Descending Winnipeg Center
12:20AM 50.1500 -104.0667 298° West 280 322 8,600 -1,800 Descending Winnipeg Center
12:21AM 50.1667 -104.1500 287° West 270 311 6,800 -1,680 Descending Winnipeg Center
12:22AM 50.2167 -104.2667 304° West 260 299 5,300 -1,500 Descending Winnipeg Center
12:23AM 50.2500 -104.3500 302° West 260 299 3,900 -900 Descending Winnipeg Center
12:24AM 50.2667 -104.4667 283° West 240 276 3,500 -240 Descending Winnipeg Center
12:25AM 50.3000 -104.5167 316° Northwest 200 230 3,500  Level Winnipeg Center
12:26AM 50.3500 -104.5833 320° Northwest 190 219 3,500 -420 Level Winnipeg Center
12:27AM 50.3833 -104.6333 316° Northwest 160 184 2,700 -840 Descending Winnipeg Center